createdAt,value
2023-03-02T00:02:02.714Z,9.30
2023-03-02T00:04:35.100Z,11.65
2023-03-02T00:07:06.312Z,10.43
2023-03-02T00:09:37.665Z,9.18
2023-03-02T00:12:08.046Z,9.52
2023-03-02T00:14:38.858Z,12.48
2023-03-02T00:17:08.419Z,11.40
2023-03-02T00:19:37.212Z,9.82
2023-03-02T00:22:06.010Z,10.30
2023-03-02T00:24:35.340Z,9.52
2023-03-02T00:27:05.716Z,10.90
2023-03-02T00:29:35.523Z,10.43
2023-03-02T00:32:06.953Z,11.35
2023-03-02T00:34:35.901Z,9.57
2023-03-02T00:37:05.442Z,10.57
2023-03-02T00:39:34.139Z,9.40
2023-03-02T00:42:02.575Z,11.02
2023-03-02T00:44:31.501Z,9.57
2023-03-02T00:47:00.444Z,9.57
2023-03-02T00:49:31.274Z,9.25
2023-03-02T00:51:59.933Z,9.50
2023-03-02T00:54:28.948Z,10.75
2023-03-02T00:56:58.396Z,8.98
2023-03-02T00:59:30.313Z,9.45
2023-03-02T01:02:01.885Z,9.57
2023-03-02T01:04:35.932Z,8.80
2023-03-02T01:07:07.587Z,8.63
2023-03-02T01:09:36.225Z,8.05
2023-03-02T01:12:05.896Z,9.20
2023-03-02T01:14:34.639Z,8.57
2023-03-02T01:17:03.538Z,8.88
2023-03-02T01:19:34.539Z,9.13
2023-03-02T01:22:03.981Z,8.88
2023-03-02T01:24:33.908Z,8.55
2023-03-02T01:27:11.921Z,8.98
2023-03-02T01:29:41.107Z,9.43
2023-03-02T01:32:11.868Z,6.78
2023-03-02T01:34:41.718Z,8.05
2023-03-02T01:37:10.638Z,8.95
2023-03-02T01:39:40.097Z,8.10
2023-03-02T01:42:09.371Z,7.78
2023-03-02T01:44:42.530Z,8.68
2023-03-02T01:47:23.467Z,8.38
2023-03-02T01:49:58.679Z,9.00
2023-03-02T01:52:29.008Z,8.70
2023-03-02T01:55:00.670Z,10.32
2023-03-02T01:57:33.151Z,9.57
2023-03-02T02:00:11.064Z,9.07
2023-03-02T02:02:42.943Z,8.48
2023-03-02T02:05:17.370Z,7.88
2023-03-02T02:07:46.392Z,9.50
2023-03-02T02:10:16.676Z,9.05
2023-03-02T02:12:45.507Z,8.40
2023-03-02T02:15:14.679Z,9.35
2023-03-02T02:17:44.160Z,8.10
2023-03-02T02:20:25.569Z,8.60
2023-03-02T02:23:11.255Z,9.05
2023-03-02T02:25:50.078Z,8.40
2023-03-02T02:28:24.588Z,8.27
2023-03-02T02:31:08.595Z,8.98
2023-03-02T02:33:41.386Z,7.60
2023-03-02T02:36:17.450Z,7.60
2023-03-02T02:38:49.657Z,8.57
2023-03-02T02:41:24.066Z,9.02
2023-03-02T02:43:56.133Z,9.68
2023-03-02T02:46:26.937Z,7.60
2023-03-02T02:48:56.062Z,9.32
2023-03-02T02:51:29.152Z,8.23
2023-03-02T02:54:01.658Z,8.90
2023-03-02T02:56:34.584Z,9.85
2023-03-02T02:59:09.356Z,9.10
2023-03-02T03:01:37.887Z,9.73
2023-03-02T03:04:08.040Z,8.48
2023-03-02T03:06:42.750Z,9.55
2023-03-02T03:09:12.809Z,9.05
2023-03-02T03:11:45.436Z,7.90
2023-03-02T03:14:17.138Z,8.00
2023-03-02T03:16:48.342Z,8.75
2023-03-02T03:19:21.497Z,7.65
2023-03-02T03:21:53.443Z,8.20
2023-03-02T03:24:22.979Z,8.00
2023-03-02T03:26:51.755Z,9.15
2023-03-02T03:29:24.530Z,9.85
2023-03-02T03:31:53.665Z,9.50
2023-03-02T03:34:24.357Z,8.27
2023-03-02T03:36:55.167Z,9.18
2023-03-02T03:39:23.817Z,7.50
2023-03-02T03:41:52.723Z,9.85
2023-03-02T03:44:23.375Z,9.68
2023-03-02T03:46:52.048Z,8.70
2023-03-02T03:49:22.041Z,10.10
2023-03-02T03:51:52.778Z,9.00
2023-03-02T03:54:22.787Z,10.07
2023-03-02T03:56:52.410Z,7.85
2023-03-02T03:59:24.776Z,7.90
2023-03-02T04:01:55.505Z,8.48
2023-03-02T04:04:27.906Z,9.48
2023-03-02T04:06:56.707Z,9.00
2023-03-02T04:09:26.276Z,9.25
2023-03-02T04:11:57.886Z,9.07
2023-03-02T04:14:28.831Z,8.88
2023-03-02T04:16:58.413Z,9.48
2023-03-02T04:19:27.511Z,10.00
2023-03-02T04:21:59.180Z,9.75
2023-03-02T04:24:28.108Z,9.50
2023-03-02T04:26:58.391Z,9.90
2023-03-02T04:29:32.837Z,8.25
2023-03-02T04:32:01.551Z,9.75
2023-03-02T04:34:30.591Z,9.80
2023-03-02T04:36:59.061Z,8.98
2023-03-02T04:39:27.877Z,10.10
2023-03-02T04:41:57.114Z,7.95
2023-03-02T04:44:25.568Z,10.65
2023-03-02T04:46:55.521Z,8.90
2023-03-02T04:49:24.103Z,9.15
2023-03-02T04:51:53.325Z,9.35
2023-03-02T04:54:24.984Z,9.35
2023-03-02T04:56:56.112Z,9.10
2023-03-02T04:59:27.363Z,8.23
2023-03-02T05:02:00.486Z,9.10
2023-03-02T05:04:31.751Z,9.50
2023-03-02T05:07:02.169Z,8.23
2023-03-02T05:09:31.083Z,9.50
2023-03-02T05:12:02.932Z,9.90
2023-03-02T05:14:32.609Z,10.13
2023-03-02T05:17:03.572Z,9.23
2023-03-02T05:19:33.393Z,9.07
2023-03-02T05:22:01.930Z,9.27
2023-03-02T05:24:30.735Z,9.80
2023-03-02T05:27:00.152Z,8.70
2023-03-02T05:29:29.250Z,8.90
2023-03-02T05:31:58.142Z,8.63
2023-03-02T05:34:29.379Z,9.77
2023-03-02T05:37:00.839Z,9.82
2023-03-02T05:39:30.270Z,9.23
2023-03-02T05:41:59.816Z,8.95
2023-03-02T05:44:28.869Z,8.30
2023-03-02T05:46:58.221Z,9.32
2023-03-02T05:49:29.017Z,8.73
2023-03-02T05:51:57.269Z,9.25
2023-03-02T05:54:26.065Z,9.10
2023-03-02T05:56:54.351Z,10.30
2023-03-02T05:59:23.546Z,10.73
2023-03-02T06:01:55.180Z,9.23
2023-03-02T06:04:24.508Z,10.05
2023-03-02T06:06:54.968Z,10.40
2023-03-02T06:09:23.953Z,8.52
2023-03-02T06:11:53.958Z,9.63
2023-03-02T06:14:22.319Z,10.23
2023-03-02T06:16:51.699Z,8.95
2023-03-02T06:19:20.020Z,10.20
2023-03-02T06:21:51.897Z,10.50
2023-03-02T06:24:23.404Z,9.55
2023-03-02T06:26:54.370Z,10.57
2023-03-02T06:29:23.168Z,9.18
2023-03-02T06:31:52.109Z,9.85
2023-03-02T06:34:21.208Z,8.80
2023-03-02T06:36:50.388Z,9.88
2023-03-02T06:39:18.714Z,9.07
2023-03-02T06:41:50.153Z,8.73
2023-03-02T06:44:20.234Z,9.75
2023-03-02T06:46:51.595Z,9.70
2023-03-02T06:49:20.341Z,9.65
2023-03-02T06:51:49.196Z,8.65
2023-03-02T06:54:17.935Z,9.48
2023-03-02T06:56:48.095Z,8.88
2023-03-02T06:59:17.559Z,8.13
2023-03-02T07:01:47.276Z,8.85
2023-03-02T07:04:16.112Z,8.27
2023-03-02T07:06:44.694Z,9.45
2023-03-02T07:09:13.380Z,10.13
2023-03-02T07:11:42.172Z,9.02
2023-03-02T07:14:12.009Z,8.63
2023-03-02T07:16:40.853Z,10.90
2023-03-02T07:19:13.621Z,9.60
2023-03-02T07:21:42.360Z,8.90
2023-03-02T07:24:12.085Z,8.80
2023-03-02T07:26:40.770Z,10.52
2023-03-02T07:29:10.093Z,11.07
2023-03-02T07:31:40.401Z,9.85
2023-03-02T07:34:09.214Z,8.65
2023-03-02T07:36:39.774Z,10.43
2023-03-02T07:39:08.418Z,9.45
2023-03-02T07:41:38.333Z,9.77
2023-03-02T07:44:07.870Z,9.93
2023-03-02T07:46:36.565Z,8.65
2023-03-02T07:49:07.024Z,12.18
2023-03-02T07:51:35.658Z,10.55
2023-03-02T07:54:05.193Z,10.25
2023-03-02T07:56:34.394Z,8.80
2023-03-02T07:59:04.475Z,9.98
2023-03-02T08:01:34.392Z,10.15
2023-03-02T08:04:04.787Z,9.55
2023-03-02T08:06:37.158Z,9.77
2023-03-02T08:09:07.957Z,10.07
2023-03-02T08:11:36.746Z,9.98
2023-03-02T08:14:06.211Z,10.15
2023-03-02T08:16:35.631Z,10.15
2023-03-02T08:19:05.319Z,8.95
2023-03-02T08:21:35.577Z,9.13
2023-03-02T08:24:05.125Z,9.80
2023-03-02T08:26:34.875Z,8.60
2023-03-02T08:29:03.561Z,8.20
2023-03-02T08:31:34.197Z,10.75
2023-03-02T08:34:02.962Z,9.48
2023-03-02T08:36:32.055Z,9.45
2023-03-02T08:39:03.034Z,9.02
2023-03-02T08:41:32.462Z,9.60
2023-03-02T08:44:01.397Z,9.60
2023-03-02T08:46:33.752Z,8.90
2023-03-02T08:49:03.635Z,9.75
2023-03-02T08:51:32.777Z,10.20
2023-03-02T08:54:03.048Z,8.80
2023-03-02T08:56:34.224Z,10.02
2023-03-02T08:59:04.952Z,8.82
2023-03-02T09:01:36.041Z,10.00
2023-03-02T09:04:07.459Z,9.05
2023-03-02T09:06:37.902Z,10.98
2023-03-02T09:09:09.440Z,9.73
2023-03-02T09:11:38.432Z,9.32
2023-03-02T09:14:09.292Z,8.43
2023-03-02T09:16:38.193Z,8.73
2023-03-02T09:19:07.625Z,8.88
2023-03-02T09:21:36.387Z,9.48
2023-03-02T09:24:05.150Z,11.02
2023-03-02T09:26:36.094Z,9.70
2023-03-02T09:29:04.842Z,9.48
2023-03-02T09:31:34.093Z,8.02
2023-03-02T09:34:03.564Z,10.23
2023-03-02T09:36:33.097Z,9.07
2023-03-02T09:39:04.156Z,9.48
2023-03-02T09:42:01.904Z,8.98
2023-03-02T09:45:21.450Z,8.82
2023-03-02T09:48:02.420Z,9.82
2023-03-02T09:50:34.296Z,8.75
2023-03-02T09:53:21.430Z,9.95
2023-03-02T09:55:55.608Z,9.50
2023-03-02T09:58:30.340Z,8.70
2023-03-02T10:01:02.266Z,8.68
2023-03-02T10:03:39.262Z,7.53
2023-03-02T10:06:07.663Z,8.43
2023-03-02T10:08:37.912Z,9.70
2023-03-02T10:11:15.569Z,9.52
2023-03-02T10:13:50.993Z,9.75
2023-03-02T10:16:32.770Z,9.40
2023-03-02T10:19:12.253Z,8.85
2023-03-02T10:21:43.540Z,9.10
2023-03-02T10:24:23.042Z,8.55
2023-03-02T10:26:55.120Z,9.30
2023-03-02T10:29:45.458Z,7.93
2023-03-02T10:32:23.585Z,10.05
2023-03-02T10:34:56.003Z,7.10
2023-03-02T10:37:26.965Z,8.50
2023-03-02T10:39:56.139Z,9.27
2023-03-02T10:42:30.405Z,9.55
2023-03-02T10:45:09.963Z,8.02
2023-03-02T10:47:38.958Z,9.45
2023-03-02T10:50:23.838Z,8.23
2023-03-02T10:52:59.968Z,7.88
2023-03-02T10:55:29.533Z,10.98
2023-03-02T10:58:03.542Z,7.15
2023-03-02T11:03:04.383Z,8.45
2023-03-02T11:05:35.618Z,7.72
2023-03-02T11:08:06.464Z,10.25
2023-03-02T11:10:38.346Z,7.63
2023-03-02T11:13:19.804Z,9.40
2023-03-02T11:15:51.811Z,8.68
2023-03-02T11:18:27.956Z,7.65
2023-03-02T11:21:00.554Z,8.50
2023-03-02T11:23:37.997Z,6.55
2023-03-02T11:26:15.334Z,9.70
2023-03-02T11:28:52.931Z,7.00
2023-03-02T11:31:40.264Z,8.60
2023-03-02T11:34:18.725Z,6.93
2023-03-02T11:37:01.127Z,6.55
2023-03-02T11:39:46.527Z,6.10
2023-03-02T11:42:32.275Z,8.05
2023-03-02T11:45:05.070Z,7.93
2023-03-02T11:47:38.479Z,5.70
2023-03-02T11:50:12.111Z,5.43
2023-03-02T11:52:46.916Z,5.72
2023-03-02T11:55:20.848Z,7.03
2023-03-02T11:57:54.419Z,6.97
2023-03-02T12:00:31.931Z,5.85
2023-03-02T12:03:05.532Z,6.80
2023-03-02T12:05:37.824Z,7.57
2023-03-02T12:08:09.220Z,4.82
2023-03-02T12:10:41.620Z,5.70
2023-03-02T12:13:21.085Z,6.18
2023-03-02T12:15:52.544Z,6.97
2023-03-02T12:18:46.816Z,5.07
2023-03-02T12:21:19.150Z,5.63
2023-03-02T12:24:01.681Z,7.32
2023-03-02T12:26:37.005Z,8.45
2023-03-02T12:29:23.702Z,6.95
2023-03-02T12:31:55.082Z,7.03
2023-03-02T12:34:41.447Z,5.00
2023-03-02T12:37:18.938Z,4.72
2023-03-02T12:40:17.697Z,4.93
2023-03-02T12:43:01.521Z,5.72
2023-03-02T12:45:43.661Z,14.00
2023-03-02T12:48:26.802Z,5.72
2023-03-02T12:51:05.017Z,5.45
2023-03-02T12:53:34.162Z,6.15
2023-03-02T12:56:02.837Z,5.80
2023-03-02T12:58:32.921Z,10.80
2023-03-02T13:01:06.209Z,5.30
2023-03-02T13:03:35.525Z,5.25
2023-03-02T13:06:16.321Z,5.60
2023-03-02T13:08:48.638Z,5.30
2023-03-02T13:11:31.730Z,4.38
2023-03-02T13:14:01.580Z,5.65
2023-03-02T13:16:34.125Z,4.80
2023-03-02T13:19:06.058Z,4.95
2023-03-02T13:21:39.158Z,5.07
2023-03-02T13:24:28.448Z,4.97
2023-03-02T13:27:01.245Z,4.50
2023-03-02T13:29:39.865Z,4.78
2023-03-02T13:32:20.781Z,6.00
2023-03-02T13:34:52.473Z,7.28
2023-03-02T13:37:29.359Z,5.00
2023-03-02T13:40:00.092Z,5.05
2023-03-02T13:42:36.181Z,5.63
2023-03-02T13:45:23.173Z,5.85
2023-03-02T13:47:51.861Z,5.75
2023-03-02T13:50:23.891Z,8.18
2023-03-02T13:52:55.564Z,6.28
2023-03-02T13:55:25.379Z,5.00
2023-03-02T13:57:56.009Z,7.50
2023-03-02T14:00:33.100Z,10.18
2023-03-02T14:03:02.580Z,4.57
2023-03-02T14:05:33.689Z,4.72
2023-03-02T14:08:04.382Z,7.13
2023-03-02T14:10:35.225Z,5.78
2023-03-02T14:13:07.723Z,3.95
2023-03-02T14:15:41.906Z,4.70
2023-03-02T14:18:26.698Z,6.15
2023-03-02T14:20:55.410Z,5.22
2023-03-02T14:23:27.913Z,5.45
2023-03-02T14:25:58.597Z,5.50
2023-03-02T14:28:32.184Z,5.40
2023-03-02T14:31:01.432Z,4.93
2023-03-02T14:33:32.291Z,5.25
2023-03-02T14:36:02.614Z,5.32
2023-03-02T14:38:33.880Z,4.40
2023-03-02T14:41:02.973Z,4.75
2023-03-02T14:43:31.856Z,5.35
2023-03-02T14:46:00.526Z,4.13
2023-03-02T14:48:28.851Z,5.40
2023-03-02T14:51:00.834Z,5.28
2023-03-02T14:53:36.439Z,4.97
2023-03-02T14:56:07.359Z,4.88
2023-03-02T14:58:37.489Z,4.63
2023-03-02T15:01:06.396Z,4.00
2023-03-02T15:03:36.602Z,4.82
2023-03-02T15:06:07.608Z,4.25
2023-03-02T15:08:38.587Z,4.78
2023-03-02T15:11:07.550Z,4.75
2023-03-02T15:13:36.769Z,4.43
2023-03-02T15:16:05.398Z,7.07
2023-03-02T15:18:34.762Z,3.63
2023-03-02T15:21:03.528Z,4.72
2023-03-02T15:23:31.860Z,5.30
2023-03-02T15:26:03.015Z,5.20
2023-03-02T15:28:31.804Z,4.10
2023-03-02T15:31:09.405Z,5.05
2023-03-02T15:33:38.171Z,4.55
2023-03-02T15:36:07.807Z,3.65
2023-03-02T15:38:38.372Z,4.32
2023-03-02T15:41:10.454Z,3.83
2023-03-02T15:43:39.837Z,4.68
2023-03-02T15:46:09.541Z,4.15
2023-03-02T15:48:38.787Z,4.10
2023-03-02T15:51:09.183Z,3.92
2023-03-02T15:53:40.497Z,4.13
2023-03-02T15:56:12.158Z,4.22
2023-03-02T15:58:41.313Z,4.18
2023-03-02T16:01:10.770Z,4.38
2023-03-02T16:03:43.153Z,4.47
2023-03-02T16:06:13.424Z,4.45
2023-03-02T16:08:42.012Z,4.70
2023-03-02T16:11:18.737Z,3.97
2023-03-02T16:13:53.664Z,4.15
2023-03-02T16:16:23.179Z,4.43
2023-03-02T16:18:52.737Z,4.72
2023-03-02T16:21:22.314Z,5.32
2023-03-02T16:23:52.852Z,4.78
2023-03-02T16:26:24.375Z,4.25
2023-03-02T16:28:53.201Z,4.93
2023-03-02T16:31:27.384Z,4.70
2023-03-02T16:33:57.894Z,4.47
2023-03-02T16:36:27.892Z,5.05
2023-03-02T16:38:57.895Z,5.53
2023-03-02T16:41:28.154Z,5.65
2023-03-02T16:43:59.216Z,4.53
2023-03-02T16:46:31.245Z,4.43
2023-03-02T16:49:00.523Z,4.30
2023-03-02T16:51:29.027Z,5.20
2023-03-02T16:53:58.148Z,5.50
2023-03-02T16:56:28.858Z,6.25
2023-03-02T16:59:00.130Z,5.22
2023-03-02T17:01:29.527Z,5.90
2023-03-02T17:03:58.308Z,4.93
2023-03-02T17:06:28.142Z,4.57
2023-03-02T17:08:56.970Z,5.07
2023-03-02T17:11:25.566Z,5.22
2023-03-02T17:13:56.515Z,5.72
2023-03-02T17:16:25.419Z,5.72
2023-03-02T17:18:54.834Z,6.10
2023-03-02T17:21:25.895Z,5.55
2023-03-02T17:23:55.005Z,5.78
2023-03-02T17:26:24.111Z,6.13
2023-03-02T17:28:54.652Z,4.88
2023-03-02T17:31:25.966Z,5.40
2023-03-02T17:33:56.849Z,5.22
2023-03-02T17:36:26.025Z,5.72
2023-03-02T17:38:56.025Z,5.78
2023-03-02T17:41:24.828Z,4.70
2023-03-02T17:43:53.830Z,5.90
2023-03-02T17:46:25.676Z,6.00
2023-03-02T17:48:57.669Z,5.03
2023-03-02T17:51:28.549Z,7.78
2023-03-02T17:53:59.375Z,5.63
2023-03-02T17:56:29.138Z,5.85
2023-03-02T17:58:59.249Z,6.13
2023-03-02T18:01:31.026Z,7.10
2023-03-02T18:04:00.389Z,5.75
2023-03-02T18:06:30.141Z,5.80
2023-03-02T18:09:00.603Z,6.32
2023-03-02T18:11:31.439Z,5.82
2023-03-02T18:14:02.479Z,5.65
2023-03-02T18:16:36.518Z,6.55
2023-03-02T18:21:35.592Z,6.97
2023-03-02T18:24:32.074Z,6.82
2023-03-02T18:27:01.769Z,5.75
2023-03-02T18:29:30.282Z,6.32
2023-03-02T18:32:03.216Z,7.60
2023-03-02T18:34:32.345Z,7.43
2023-03-02T18:37:00.921Z,7.63
2023-03-02T18:39:31.976Z,6.72
2023-03-02T18:42:04.099Z,6.85
2023-03-02T18:44:35.784Z,6.70
2023-03-02T18:47:08.266Z,7.10
2023-03-02T18:49:39.096Z,6.97
2023-03-02T18:52:07.989Z,7.63
2023-03-02T18:54:38.166Z,8.18
2023-03-02T18:57:09.872Z,7.47
2023-03-02T18:59:38.763Z,8.07
2023-03-02T19:02:10.694Z,8.50
2023-03-02T19:04:41.489Z,8.27
2023-03-02T19:07:12.142Z,7.50
2023-03-02T19:09:42.860Z,8.45
2023-03-02T19:12:16.053Z,8.60
2023-03-02T19:14:45.067Z,7.68
2023-03-02T19:17:15.647Z,7.80
2023-03-02T19:19:46.790Z,7.57
2023-03-02T19:22:16.830Z,8.15
2023-03-02T19:24:48.199Z,7.50
2023-03-02T19:27:18.017Z,9.27
2023-03-02T19:29:46.894Z,8.57
2023-03-02T19:32:20.510Z,9.23
2023-03-02T19:34:51.452Z,8.80
2023-03-02T19:37:20.212Z,9.18
2023-03-02T19:39:50.071Z,8.48
2023-03-02T19:42:19.230Z,8.88
2023-03-02T19:44:47.717Z,9.70
2023-03-02T19:47:19.550Z,8.88
2023-03-02T19:49:48.709Z,8.35
2023-03-02T19:52:17.476Z,8.13
2023-03-02T19:54:54.925Z,8.70
2023-03-02T19:57:25.601Z,8.73
2023-03-02T19:59:55.702Z,8.55
2023-03-02T20:02:28.674Z,8.60
2023-03-02T20:04:57.673Z,8.23
2023-03-02T20:07:32.446Z,9.05
2023-03-02T20:10:01.135Z,7.13
2023-03-02T20:12:31.381Z,8.43
2023-03-02T20:15:00.010Z,9.50
2023-03-02T20:17:30.579Z,9.50
2023-03-02T20:20:01.484Z,7.68
2023-03-02T20:22:31.049Z,8.05
2023-03-02T20:25:00.173Z,8.20
2023-03-02T20:27:31.336Z,9.00
2023-03-02T20:30:00.089Z,9.35
2023-03-02T20:32:30.101Z,6.72
2023-03-02T20:35:00.138Z,7.47
2023-03-02T20:37:30.300Z,8.50
2023-03-02T20:39:59.849Z,7.43
2023-03-02T20:42:31.764Z,7.88
2023-03-02T20:45:02.553Z,7.03
2023-03-02T20:47:33.059Z,7.93
2023-03-02T20:50:02.574Z,9.20
2023-03-02T20:52:33.160Z,8.65
2023-03-02T20:55:02.364Z,7.80
2023-03-02T20:57:32.508Z,7.80
2023-03-02T21:00:01.758Z,7.28
2023-03-02T21:02:32.504Z,8.18
2023-03-02T21:05:01.619Z,8.50
2023-03-02T21:07:30.843Z,7.18
2023-03-02T21:09:59.739Z,7.57
2023-03-02T21:12:28.490Z,8.23
2023-03-02T21:14:57.652Z,7.80
2023-03-02T21:17:27.414Z,8.52
2023-03-02T21:19:58.492Z,8.32
2023-03-02T21:22:29.052Z,8.50
2023-03-02T21:24:58.734Z,9.73
2023-03-02T21:27:27.395Z,7.88
2023-03-02T21:29:56.957Z,8.88
2023-03-02T21:32:26.864Z,9.05
2023-03-02T21:34:58.519Z,9.73
2023-03-02T21:37:27.480Z,8.65
2023-03-02T21:39:56.884Z,9.35
2023-03-02T21:42:25.297Z,9.68
2023-03-02T21:44:55.869Z,9.63
2023-03-02T21:47:25.470Z,9.40
2023-03-02T21:49:57.227Z,8.07
2023-03-02T21:52:28.099Z,10.75
2023-03-02T21:54:56.888Z,9.65
2023-03-02T21:57:26.722Z,10.00
2023-03-02T21:59:56.171Z,11.13
2023-03-02T22:02:25.076Z,9.57
2023-03-02T22:04:55.008Z,10.05
2023-03-02T22:07:25.481Z,10.63
2023-03-02T22:09:54.647Z,13.65
2023-03-02T22:12:24.637Z,10.50
2023-03-02T22:14:54.885Z,12.57
2023-03-02T22:17:25.000Z,10.27
2023-03-02T22:19:55.087Z,10.32
2023-03-02T22:22:30.590Z,12.30
2023-03-02T22:24:59.784Z,14.02
2023-03-02T22:27:30.550Z,10.55
2023-03-02T22:30:01.894Z,10.63
2023-03-02T22:32:32.649Z,9.35
2023-03-02T22:35:03.476Z,11.27
2023-03-02T22:37:35.973Z,10.13
2023-03-02T22:40:18.350Z,11.70
2023-03-02T22:42:47.135Z,11.00
2023-03-02T22:45:18.387Z,11.90
2023-03-02T22:47:51.941Z,11.38
2023-03-02T22:50:23.571Z,11.50
2023-03-02T22:52:55.794Z,11.43
2023-03-02T22:55:38.062Z,9.65
2023-03-02T22:58:33.176Z,11.10
2023-03-02T23:01:03.475Z,10.90
2023-03-02T23:03:40.236Z,10.90
2023-03-02T23:06:28.552Z,13.43
2023-03-02T23:09:00.796Z,10.75
2023-03-02T23:11:31.771Z,12.68
2023-03-02T23:14:04.282Z,11.10
2023-03-02T23:16:37.150Z,11.85
2023-03-02T23:19:06.654Z,9.27
2023-03-02T23:21:40.351Z,10.68
2023-03-02T23:24:11.400Z,11.63
2023-03-02T23:26:40.288Z,10.20
2023-03-02T23:29:11.178Z,9.65
2023-03-02T23:31:40.375Z,11.48
2023-03-02T23:34:09.126Z,12.20
2023-03-02T23:36:39.956Z,12.07
2023-03-02T23:39:12.080Z,10.98
2023-03-02T23:41:41.783Z,10.60
2023-03-02T23:44:10.796Z,11.38
2023-03-02T23:46:40.054Z,11.18
2023-03-02T23:49:09.550Z,9.80
2023-03-02T23:51:38.491Z,11.05
2023-03-02T23:54:07.615Z,12.10
2023-03-02T23:56:39.098Z,10.18
2023-03-02T23:59:08.240Z,11.00
